Latest Coastal Weather Observations for South Johnstone

IDQ60701

Issued at 5:15 pm EST Saturday 26 July 2014 (issued every 10 minutes, with the page automatically refreshed every 10 minutes)

About coastal observations | Map of coastal stations | Coastal observations for QLD | Marine services | Other Formats
Station Details ID: 032037 Name: SOUTH JOHNSTONE EXP STN Lat: -17.61 Lon: 146.00 Height: 18.3 m
Data from the previous 72 hours. | See also: Recent months at South Johnstone
Date/Time
EST
Temp

°C
Wind Pressure Rain
since 9am
mm
Weather Cloud Vis
km
Sea
Height
m
Swell
Dir
 
Speed
knots
Gust
knots
hPa Trend Height
m
Period
s
Dir
26/05:00pm 22.8 SSE 7 12 1021.0 - 0.0 - - - - - - -
26/04:30pm 22.6 SSE 9 13 1020.9 - 0.0 - - - - - - -
26/04:00pm 23.1 SSE 9 13 1020.8 - 0.0 - - - - - - -
26/03:30pm 24.2 SE 10 15 1020.6 - 0.0 - - - - - - -
26/03:00pm 23.3 SE 9 14 1020.5 - 0.0 - - - - - - -
26/02:30pm 24.3 SSE 10 15 1020.5 - 0.0 - - - - - - -
26/02:00pm 24.6 SE 11 15 1020.8 - 0.0 - - - - - - -
26/01:30pm 24.8 SSE 12 17 1021.0 - 0.0 - - - - - - -
26/01:00pm 23.7 SSE 12 17 1021.4 - 0.0 - - - - - - -
26/12:30pm 24.0 SSE 11 17 1021.8 - 0.0 - - - - - - -
26/12:00pm 23.6 S 10 14 1022.2 - 0.0 - - - - - - -
26/11:30am 23.4 SSE 9 14 1022.6 - 0.0 - - - - - - -
26/11:00am 23.3 S 9 14 1022.9 - 0.0 - - - - - - -
26/10:30am 23.0 S 8 13 1023.0 - 0.0 - - - - - - -
26/10:00am 22.8 S 8 13 1023.5 - 0.0 - - - - - - -
26/09:30am 22.2 S 8 15 1023.4 - 0.0 - - - - - - -
26/09:00am 22.0 S 8 13 1023.0 - 7.2 - - - - - - -
26/08:30am 22.2 S 9 15 1023.0 - 7.2 - - - - - - -
26/08:00am 21.5 SSW 7 11 1022.6 - 7.2 - - - - - - -
26/07:30am 18.6 NW 2 4 1022.4 - 7.2 - - - - - - -
26/07:00am 18.6 NNE 3 6 1022.2 - 7.2 - - - - - - -
26/06:30am 20.1 SSW 7 12 1021.8 - 7.2 - - - - - - -
26/06:00am 18.1 CALM 0 0 1021.6 - 7.2 - - - - - - -
26/05:30am 18.2 CALM 0 4 1021.4 - 7.2 - - - - - - -
26/05:00am 18.4 WSW 2 6 1021.3 - 7.2 - - - - - - -
26/04:30am 18.6 CALM 0 0 1021.3 - 7.2 - - - - - - -
26/04:00am 18.7 CALM 0 0 1021.5 - 7.2 - - - - - - -
26/03:30am 18.7 WSW 5 7 1021.5 - 7.0 - - - - - - -
26/03:00am 18.7 WSW 2 6 1021.6 - 6.8 - - - - - - -
26/02:30am 18.8 W 3 5 1021.6 - 6.8 - - - - - - -
26/02:00am 18.9 WSW 4 5 1021.8 - 6.8 - - - - - - -
26/01:30am 19.3 SW 3 5 1022.2 - 6.8 - - - - - - -
26/01:00am 19.2 SSE 7 11 1022.7 - 6.8 - - - - - - -
26/12:30am 19.8 SE 10 14 1022.7 - 6.8 - - - - - - -
26/12:00am 20.2 SE 8 14 1022.6 - 6.8 - - - - - - -
 
Date/Time
EST
Temp

°C
Wind Pressure Rain
since 9am
mm
Weather Cloud Vis
km
Sea
Height
m
Swell
Dir
 
Speed
knots
Gust
knots
hPa Trend Height
m
Period
s
Dir
25/11:30pm 21.1 SSW 6 10 1022.7 - 5.6 - - - - - - -
25/11:00pm 20.9 SSW 6 9 1023.0 - 5.6 - - - - - - -
25/10:30pm 20.3 SSW 1 3 1023.0 - 5.4 - - - - - - -
25/10:00pm 20.5 SE 4 7 1022.9 - 5.4 - - - - - - -
25/09:30pm 21.3 SSW 6 9 1022.8 - 0.4 - - - - - - -
25/09:00pm 21.2 S 4 6 1022.5 - 0.4 - - - - - - -
25/08:30pm 21.4 S 6 10 1022.4 - 0.4 - - - - - - -
25/08:00pm 21.7 S 7 11 1022.1 - 0.4 - - - - - - -
25/07:30pm 21.8 S 7 14 1021.6 - 0.2 - - - - - - -
25/07:00pm 22.2 S 7 11 1021.2 - 0.2 - - - - - - -
25/06:30pm 22.2 S 4 8 1020.7 - 0.2 - - - - - - -
25/06:00pm 22.2 SSE 2 4 1020.4 - 0.2 - - - - - - -
25/05:30pm 23.0 ESE 5 8 1020.4 - 0.2 - - - - - - -
25/05:00pm 23.5 ESE 7 10 1019.9 - 0.2 - - - - - - -
25/04:30pm 23.7 ESE 9 13 1019.6 - 0.2 - - - - - - -
25/04:00pm 23.9 ESE 9 14 1019.6 - 0.2 - - - - - - -
25/03:30pm 23.7 ESE 9 16 1019.4 - 0.2 - - - - - - -
25/03:00pm 23.7 ESE 10 16 1019.2 - 0.2 - - - - - - -
25/02:30pm 24.1 E 10 15 1019.3 - 0.2 - - - - - - -
25/02:00pm 23.0 ESE 11 17 1019.5 - 0.2 - - - - - - -
25/01:30pm 24.2 ESE 11 16 1019.7 - 0.2 - - - - - - -
25/01:00pm 22.5 NE 9 16 1020.1 - 0.2 - - - - - - -
25/12:30pm 22.8 ESE 12 21 1020.4 - 0.2 - - - - - - -
25/12:00pm 25.8 ESE 10 15 1020.4 - 0.2 - - - - - - -
25/11:30am 25.3 E 9 19 1020.9 - 0.2 - - - - - - -
25/11:00am 23.7 E 5 10 1021.1 - 0.2 - - - - - - -
25/10:30am 23.2 SSE 5 8 1021.3 - 0.2 - - - - - - -
25/10:00am 22.5 NNW 1 4 1021.5 - 0.2 - - - - - - -
25/09:30am 21.0 SSW 4 8 1021.4 - 0.2 - - - - - - -
25/09:00am 20.1 CALM 0 0 1021.2 - 7.6 - - - - - - -
25/08:30am 19.8 CALM 0 0 1021.0 - 5.0 - - - - - - -
25/08:00am 19.5 CALM 0 0 1020.6 - 5.0 - - - - - - -
25/07:30am 18.9 CALM 0 0 1020.2 - 5.0 - - - - - - -
25/07:00am 18.7 WNW 1 4 1019.8 - 4.8 - - - - - - -
25/06:30am 18.6 CALM 0 3 1019.4 - 4.4 - - - - - - -
25/06:00am 18.4 NNE 1 5 1019.2 - 4.4 - - - - - - -
25/05:30am 18.4 CALM 0 0 1018.8 - 1.2 - - - - - - -
25/05:00am 18.3 WSW 1 3 1018.6 - 0.2 - - - - - - -
25/04:30am 18.2 CALM 0 3 1018.5 - 0.2 - - - - - - -
25/04:00am 18.3 SW 4 5 1018.5 - 0.2 - - - - - - -
25/03:30am 18.2 WSW 2 4 1018.4 - 0.2 - - - - - - -
25/03:00am 18.4 CALM 0 0 1018.4 - 0.2 - - - - - - -
25/02:30am 18.3 CALM 0 0 1018.5 - 0.0 - - - - - - -
25/02:00am 18.4 WSW 3 4 1018.7 - 0.0 - - - - - - -
25/01:30am 18.5 SW 4 5 1019.0 - 0.0 - - - - - - -
25/01:00am 18.3 W 1 5 1019.2 - 0.0 - - - - - - -
25/12:30am 18.5 CALM 0 0 1019.3 - 0.0 - - - - - - -
25/12:00am 18.8 CALM 0 3 1019.3 - 0.0 - - - - - - -
 
Date/Time
EST
Temp

°C
Wind Pressure Rain
since 9am
mm
Weather Cloud Vis
km
Sea
Height
m
Swell
Dir
 
Speed
knots
Gust
knots
hPa Trend Height
m
Period
s
Dir
24/11:30pm 18.9 W 2 4 1019.6 - 0.0 - - - - - - -
24/11:00pm 19.0 WSW 2 5 1019.8 - 0.0 - - - - - - -
24/10:30pm 19.1 CALM 0 2 1019.9 - 0.0 - - - - - - -
24/10:00pm 20.0 SW 2 4 1019.8 - 0.0 - - - - - - -
24/09:30pm 20.1 SW 5 6 1019.8 - 0.0 - - - - - - -
24/09:00pm 20.3 SW 4 6 1019.5 - 0.0 - - - - - - -
24/08:30pm 20.9 S 4 6 1019.3 - 0.0 - - - - - - -
24/08:00pm 21.1 SSE 5 7 1019.1 - 0.0 - - - - - - -
24/07:30pm 20.7 SSE 4 5 1018.7 - 0.0 - - - - - - -
24/07:00pm 20.9 SE 6 8 1018.2 - 0.0 - - - - - - -
24/06:30pm 21.3 SE 5 7 1017.9 - 0.0 - - - - - - -
24/06:00pm 21.9 SSE 5 8 1017.5 - 0.0 - - - - - - -
24/05:30pm 22.6 S 4 5 1017.2 - 0.0 - - - - - - -
24/05:00pm 22.7 SSE 4 6 1017.0 - 0.0 - - - - - - -
24/04:30pm 23.2 ESE 4 6 1016.8 - 0.0 - - - - - - -
24/04:00pm 23.5 SE 5 7 1016.7 - 0.0 - - - - - - -
24/03:30pm 23.5 SE 5 7 1016.6 - 0.0 - - - - - - -
24/03:00pm 23.0 SE 8 13 1016.4 - 0.0 - - - - - - -
24/02:30pm 24.6 E 6 8 1016.6 - 0.0 - - - - - - -
24/02:00pm 24.2 E 7 9 1016.9 - 0.0 - - - - - - -
24/01:30pm 24.1 ESE 7 10 1017.2 - 0.0 - - - - - - -
24/01:00pm 24.7 E 7 14 1017.5 - 0.0 - - - - - - -
24/12:30pm 24.6 ENE 7 10 1017.7 - 0.0 - - - - - - -
24/12:00pm 24.4 ESE 6 11 1018.0 - 0.0 - - - - - - -
24/11:30am 24.2 E 6 10 1018.4 - 0.0 - - - - - - -
24/11:00am 24.0 ESE 5 10 1018.7 - 0.0 - - - - - - -
24/10:30am 23.1 ENE 1 4 1018.9 - 0.0 - - - - - - -
24/10:00am 21.0 CALM 0 0 1019.1 - 0.0 - - - - - - -
24/09:30am 20.6 CALM 0 0 1018.9 - 0.0 - - - - - - -
24/09:00am 18.1 WNW 1 3 1018.7 - 0.2 - - - - - - -
24/08:30am 16.4 WNW 3 5 1018.3 - 0.2 - - - - - - -
24/08:00am 14.6 CALM 0 3 1018.0 - 0.2 - - - - - - -
24/07:30am 13.5 W 3 5 1017.7 - 0.2 - - - - - - -
24/07:00am 13.1 NNW 1 4 1017.4 - 0.2 - - - - - - -
24/06:30am 13.2 W 2 5 1017.2 - 0.2 - - - - - - -
24/06:00am 13.1 W 2 4 1017.0 - 0.2 - - - - - - -
24/05:30am 13.4 WNW 2 5 1017.0 - 0.2 - - - - - - -
24/05:00am 13.7 WNW 3 5 1016.8 - 0.0 - - - - - - -
24/04:30am 13.9 WNW 3 4 1016.8 - 0.0 - - - - - - -
24/04:00am 14.2 W 3 5 1016.9 - 0.0 - - - - - - -
24/03:30am 14.0 WSW 3 5 1017.0 - 0.0 - - - - - - -
24/03:00am 13.7 W 4 7 1016.9 - 0.0 - - - - - - -
24/02:30am 13.7 WNW 2 5 1017.1 - 0.0 - - - - - - -
24/02:00am 14.6 W 4 8 1017.4 - 0.0 - - - - - - -
24/01:30am 14.8 WSW 5 7 1017.6 - 0.0 - - - - - - -
24/01:00am 14.8 W 3 5 1018.1 - 0.0 - - - - - - -
24/12:30am 15.2 WNW 3 5 1018.4 - 0.0 - - - - - - -
24/12:00am 15.4 W 3 6 1018.5 - 0.0 - - - - - - -
 
Date/Time
EST
Temp

°C
Wind Pressure Rain
since 9am
mm
Weather Cloud Vis
km
Sea
Height
m
Swell
Dir
 
Speed
knots
Gust
knots
hPa Trend Height
m
Period
s
Dir
23/11:30pm 15.4 W 3 6 1018.6 - 0.0 - - - - - - -
23/11:00pm 15.6 W 3 5 1018.6 - 0.0 - - - - - - -
23/10:30pm 15.8 CALM 0 0 1018.7 - 0.0 - - - - - - -
23/10:00pm 16.1 CALM 0 1 1018.7 - 0.0 - - - - - - -
23/09:30pm 16.5 CALM 0 3 1018.8 - 0.0 - - - - - - -
23/09:00pm 16.8 CALM 0 3 1018.5 - 0.0 - - - - - - -
23/08:30pm 17.5 WSW 5 7 1018.4 - 0.0 - - - - - - -
23/08:00pm 18.3 WSW 5 6 1018.2 - 0.0 - - - - - - -
23/07:30pm 19.7 SSW 5 7 1017.9 - 0.0 - - - - - - -
23/07:00pm 20.2 SSW 5 8 1017.6 - 0.0 - - - - - - -
23/06:30pm 20.5 SSW 5 8 1017.4 - 0.0 - - - - - - -
23/06:00pm 20.4 S 3 5 1017.0 - 0.0 - - - - - - -
23/05:30pm 21.3 SE 7 10 1016.7 - 0.0 - - - - - - -

Other Formats:

Comma delimited format used in spreadsheet applications
http://www.bom.gov.au/fwo/IDQ60701/IDQ60701.95292.axf

JavaScript Object Notation format (JSON) in row-major order
http://www.bom.gov.au/fwo/IDQ60701/IDQ60701.95292.json